Time;durP1;ratioP1;P1;durP2;ratioP2;P2;SDS_P1;SDS_P2;PMS_P1;PMS_P2;Temp;Humidity;BMP_temperature;BMP_pressure;BME280_temperature;BME280_humidity;BME280_pressure;Samples;Min_cycle;Max_cycle;Signal;HPM_P1;HPM_P2
2023/10/02 00:01:24;;;;;;;8.20;4.60;;;;;;;20.42;49.20;101781.48;107144;1263;25334;-57
2023/10/02 00:06:37;;;;;;;9.60;4.30;;;;;;;20.37;49.00;101785.27;107102;1263;22523;-57
2023/10/02 00:09:04;;;;;;;9.80;4.30;;;;;;;20.33;49.01;101794.24;107069;1261;23872;-57
2023/10/02 00:11:45;;;;;;;8.10;3.70;;;;;;;20.30;48.57;101792.83;106859;1256;25347;-58
2023/10/02 00:14:18;;;;;;;9.30;4.50;;;;;;;20.25;48.50;101796.23;107152;1254;25343;-58
2023/10/02 00:16:59;;;;;;;10.40;4.00;;;;;;;20.22;48.82;101796.89;107118;1254;25352;-58
2023/10/02 00:19:36;;;;;;;7.70;4.00;;;;;;;20.17;48.66;101795.30;107067;1257;25411;-57
2023/10/02 00:22:41;;;;;;;8.90;4.30;;;;;;;20.13;48.80;101796.52;106903;1258;25236;-57
2023/10/02 00:25:27;;;;;;;9.10;4.60;;;;;;;20.11;48.76;101794.70;106913;1262;25411;-57
2023/10/02 00:27:54;;;;;;;6.80;3.70;;;;;;;20.10;48.56;101795.81;107139;1263;25337;-58
2023/10/02 00:30:23;;;;;;;7.20;3.70;;;;;;;20.07;48.18;101795.41;107154;1257;25331;-58
2023/10/02 00:32:50;;;;;;;8.40;4.00;;;;;;;20.05;47.88;101797.63;107025;1263;25475;-57
2023/10/02 00:35:22;;;;;;;9.50;4.40;;;;;;;20.01;48.06;101797.80;107167;1261;25325;-58
2023/10/02 00:37:52;;;;;;;9.30;4.10;;;;;;;19.98;48.39;101798.29;106882;1266;25401;-57
2023/10/02 00:40:28;;;;;;;9.00;4.30;;;;;;;19.94;48.30;101799.34;107078;1255;24759;-57
2023/10/02 00:42:59;;;;;;;9.90;4.00;;;;;;;19.88;48.52;101799.09;107078;1256;22523;-59
2023/10/02 00:45:29;;;;;;;;;;;;;;;19.83;48.49;101799.81;107087;1254;24257;-58
2023/10/02 00:48:25;;;;;;;6.80;3.90;;;;;;;19.80;48.15;101801.52;107130;1254;25338;-58
2023/10/02 00:50:50;;;;;;;6.90;3.90;;;;;;;19.78;48.33;101801.98;106729;1270;25356;-58
2023/10/02 00:53:24;;;;;;;8.70;3.80;;;;;;;19.77;48.32;101803.61;107135;1257;25325;-58
2023/10/02 00:55:51;;;;;;;7.80;3.70;;;;;;;19.75;48.08;101805.63;107122;1260;24269;-58
2023/10/02 00:58:19;;;;;;;11.70;3.80;;;;;;;19.73;48.23;101807.48;107265;1254;25353;-58
2023/10/02 01:00:50;;;;;;;9.60;4.40;;;;;;;19.71;47.95;101808.27;107082;1257;25333;-58
2023/10/02 01:03:18;;;;;;;9.80;3.70;;;;;;;19.69;48.26;101813.63;106948;1259;25325;-58
2023/10/02 01:05:50;;;;;;;7.20;3.50;;;;;;;19.66;48.71;101811.31;107105;1257;25334;-58
2023/10/02 01:08:24;;;;;;;7.10;3.80;;;;;;;19.67;49.59;101816.56;107113;1255;25452;-58
2023/10/02 01:11:00;;;;;;;6.20;3.50;;;;;;;19.68;49.78;101816.70;106956;1266;25378;-58
2023/10/02 01:13:35;;;;;;;7.10;3.60;;;;;;;19.67;49.65;101816.35;106897;1258;23182;-58
2023/10/02 01:16:09;;;;;;;11.90;4.30;;;;;;;19.69;49.59;101819.64;107083;1263;23535;-59
2023/10/02 01:18:39;;;;;;;7.70;3.50;;;;;;;19.70;49.41;101817.83;107061;1259;25337;-58
2023/10/02 01:21:11;;;;;;;8.50;3.80;;;;;;;19.69;49.11;101816.11;106814;1263;24202;-58
2023/10/02 01:24:17;;;;;;;7.40;4.40;;;;;;;19.67;48.79;101819.54;107142;1263;25449;-58
2023/10/02 01:26:50;;;;;;;7.60;4.10;;;;;;;19.66;48.82;101820.48;107089;1256;25334;-57
2023/10/02 01:29:18;;;;;;;8.30;3.90;;;;;;;19.64;48.99;101821.42;106814;1260;24200;-57
2023/10/02 01:31:45;;;;;;;9.20;3.50;;;;;;;19.63;48.62;101822.20;106817;1268;25446;-57
2023/10/02 01:37:32;;;;;;;5.90;3.40;;;;;;;19.59;48.63;101825.38;106858;1259;25328;-58
2023/10/02 01:40:28;;;;;;;10.80;3.80;;;;;;;19.57;48.59;101820.34;106883;1259;25481;-58
2023/10/02 01:42:39;;;;;;;5.90;3.30;;;;;;;19.56;48.91;101824.42;106782;1266;25577;-58
2023/10/02 01:45:08;;;;;;;6.90;3.20;;;;;;;19.57;49.13;101823.70;106821;1259;25359;-58
2023/10/02 01:47:41;;;;;;;7.30;4.00;;;;;;;19.57;49.25;101820.68;106837;1259;25224;-58
2023/10/02 01:50:09;;;;;;;8.60;3.90;;;;;;;19.57;49.46;101827.20;106887;1259;22959;-58
2023/10/02 01:52:38;;;;;;;7.70;3.40;;;;;;;19.56;49.27;101825.30;106920;1258;25331;-58
2023/10/02 01:55:29;;;;;;;6.60;3.50;;;;;;;19.55;49.08;101827.80;106827;1263;25350;-58
2023/10/02 01:57:56;;;;;;;7.00;3.50;;;;;;;19.53;49.03;101826.47;106823;1263;25328;-58
2023/10/02 02:00:24;;;;;;;7.30;3.20;;;;;;;19.51;49.17;101825.33;106850;1259;25329;-59
2023/10/02 02:03:14;;;;;;;11.30;3.90;;;;;;;19.51;49.18;101824.96;106716;1270;24290;-58
2023/10/02 02:05:44;;;;;;;8.30;3.40;;;;;;;19.53;49.07;101826.47;106582;1269;22584;-58
2023/10/02 02:08:21;;;;;;;7.10;3.40;;;;;;;19.54;48.70;101824.85;106773;1259;25514;-58
2023/10/02 02:10:54;;;;;;;8.10;3.90;;;;;;;19.52;48.74;101823.86;106811;1260;25338;-58
2023/10/02 02:13:21;;;;;;;6.80;3.50;;;;;;;19.52;48.84;101825.99;106741;1273;25366;-58
2023/10/02 02:16:06;;;;;;;8.60;3.60;;;;;;;19.53;49.15;101830.73;106869;1260;25337;-58
2023/10/02 02:18:34;;;;;;;5.80;3.30;;;;;;;19.51;49.14;101831.49;106803;1259;25418;-59
2023/10/02 02:21:02;;;;;;;5.40;3.00;;;;;;;19.49;49.50;101833.30;106939;1257;22522;-58
2023/10/02 02:23:31;;;;;;;6.30;3.30;;;;;;;19.48;49.21;101833.17;106887;1267;25395;-58
2023/10/02 02:25:58;;;;;;;10.10;3.60;;;;;;;19.44;49.01;101829.83;107185;1263;25481;-58
2023/10/02 02:28:26;;;;;;;6.40;3.10;;;;;;;19.41;48.39;101827.85;107190;1263;25427;-58
2023/10/02 02:30:53;;;;;;;7.20;4.10;;;;;;;19.40;48.27;101829.13;107164;1264;25359;-58
2023/10/02 02:33:34;;;;;;;6.60;3.40;;;;;;;19.37;48.16;101832.03;106832;1266;25233;-58
2023/10/02 02:36:05;;;;;;;6.10;3.50;;;;;;;19.35;48.33;101838.83;107125;1257;25334;-58
2023/10/02 02:38:35;;;;;;;7.50;4.00;;;;;;;19.33;48.20;101839.95;106829;1263;25399;-58
2023/10/02 02:41:07;;;;;;;7.50;3.70;;;;;;;19.30;48.07;101839.36;106713;1262;25347;-58
2023/10/02 02:43:37;;;;;;;6.40;3.30;;;;;;;19.27;47.98;101841.93;106859;1266;25447;-57
2023/10/02 02:46:06;;;;;;;8.00;3.50;;;;;;;19.25;48.61;101842.17;106636;1254;24231;-58
2023/10/02 02:48:44;;;;;;;7.30;3.60;;;;;;;19.25;48.60;101838.50;106744;1254;23272;-57
2023/10/02 02:51:21;;;;;;;6.20;3.40;;;;;;;19.24;48.90;101842.95;106618;1277;25402;-58
2023/10/02 02:53:51;;;;;;;6.40;3.50;;;;;;;19.23;49.06;101839.14;106920;1266;25414;-57
2023/10/02 02:56:18;;;;;;;7.20;3.20;;;;;;;19.22;49.48;101838.98;106825;1257;25481;-58
2023/10/02 02:58:48;;;;;;;7.00;3.80;;;;;;;19.21;49.17;101840.45;106873;1266;25338;-58
2023/10/02 03:01:21;;;;;;;8.40;3.80;;;;;;;19.20;49.14;101844.00;106801;1259;22532;-58
2023/10/02 03:03:52;;;;;;;10.40;4.00;;;;;;;19.20;49.55;101845.77;106796;1260;25353;-58
2023/10/02 03:06:23;;;;;;;8.80;3.60;;;;;;;19.19;49.22;101846.33;106744;1260;25402;-58
2023/10/02 03:08:53;;;;;;;5.90;3.80;;;;;;;19.17;48.94;101845.35;106891;1266;25570;-58
2023/10/02 03:11:22;;;;;;;8.80;3.60;;;;;;;19.14;49.11;101846.34;107065;1257;25363;-58
2023/10/02 03:14:16;;;;;;;6.00;3.30;;;;;;;19.13;49.03;101850.96;107074;1267;22531;-58
2023/10/02 03:16:45;;;;;;;6.10;3.00;;;;;;;19.11;49.16;101846.28;107038;1250;25487;-58
2023/10/02 03:19:13;;;;;;;6.90;3.20;;;;;;;19.10;49.38;101850.53;106863;1266;25363;-58
2023/10/02 03:21:42;;;;;;;7.30;3.50;;;;;;;19.09;49.15;101852.67;107097;1263;23270;-58
2023/10/02 03:24:12;;;;;;;6.70;3.90;;;;;;;19.10;49.58;101849.84;106911;1274;25573;-58
2023/10/02 03:26:39;;;;;;;7.10;3.30;;;;;;;19.10;49.49;101850.16;107106;1264;25352;-58
2023/10/02 03:29:11;;;;;;;7.30;3.60;;;;;;;19.11;49.41;101849.98;107142;1266;25325;-59
2023/10/02 03:31:43;;;;;;;8.00;3.50;;;;;;;19.13;49.63;101852.20;106877;1272;22524;-58
2023/10/02 03:37:08;;;;;;;7.80;3.60;;;;;;;19.11;49.10;101851.55;106884;1258;25334;-58
2023/10/02 03:42:39;;;;;;;8.50;3.60;;;;;;;19.04;48.41;101855.20;107161;1260;25353;-58
2023/10/02 03:45:07;;;;;;;6.20;3.10;;;;;;;19.00;48.67;101858.66;107131;1259;25325;-59
2023/10/02 03:47:35;;;;;;;9.50;3.90;;;;;;;18.99;48.74;101860.46;107082;1258;22524;-58
2023/10/02 03:50:04;;;;;;;5.10;3.10;;;;;;;18.97;48.74;101861.80;104251;1263;1003597;-58
2023/10/02 03:52:32;;;;;;;6.40;3.10;;;;;;;18.96;48.70;101864.64;107215;1257;25214;-58
2023/10/02 03:55:14;;;;;;;6.40;3.60;;;;;;;18.96;48.72;101866.59;107112;1255;24302;-58
2023/10/02 03:57:47;;;;;;;9.20;3.90;;;;;;;18.96;48.76;101866.95;106853;1274;25433;-57
2023/10/02 04:02:50;;;;;;;7.60;3.80;;;;;;;18.98;49.26;101868.98;107096;1266;25411;-57
2023/10/02 04:05:31;;;;;;;8.80;3.80;;;;;;;18.97;49.02;101873.02;107144;1256;22609;-57
2023/10/02 04:08:21;;;;;;;7.20;3.80;;;;;;;18.97;49.29;101877.25;106875;1259;25315;-57
2023/10/02 04:10:55;;;;;;;7.20;3.40;;;;;;;18.98;49.17;101881.83;107080;1257;25334;-57
2023/10/02 04:13:31;;;;;;;7.80;3.40;;;;;;;19.00;49.46;101884.38;107170;1257;24209;-57
2023/10/02 04:18:49;;;;;;;6.20;2.90;;;;;;;19.00;49.56;101894.73;107131;1261;25384;-57
2023/10/02 04:21:22;;;;;;;6.30;3.00;;;;;;;19.01;49.68;101897.33;107072;1263;25362;-57
2023/10/02 04:23:52;;;;;;;7.60;4.00;;;;;;;19.02;49.62;101895.02;106936;1267;25533;-57
2023/10/02 04:26:23;;;;;;;12.40;4.30;;;;;;;19.01;49.49;101897.00;106928;1260;25471;-57
2023/10/02 04:28:55;;;;;;;7.70;3.70;;;;;;;19.00;49.31;101902.83;107129;1257;25318;-57
2023/10/02 04:31:27;;;;;;;;;;;;;;;18.98;49.10;101899.92;107116;1256;22501;-57
2023/10/02 04:36:41;;;;;;;6.70;3.40;;;;;;;18.97;49.87;101905.75;107202;1254;25347;-57
2023/10/02 04:39:51;;;;;;;8.90;3.90;;;;;;;18.97;49.52;101903.46;107136;1263;25324;-57
2023/10/02 04:42:12;;;;;;;6.50;4.00;;;;;;;18.96;49.51;101906.48;107050;1257;25334;-58
2023/10/02 04:44:59;;;;;;;6.00;3.40;;;;;;;18.96;49.54;101915.28;107145;1260;25325;-57
2023/10/02 04:47:27;;;;;;;9.10;3.80;;;;;;;18.94;49.66;101919.06;107132;1257;25353;-57
2023/10/02 04:53:03;;;;;;;6.70;3.50;;;;;;;18.91;49.47;101926.94;107039;1255;25343;-58
2023/10/02 04:55:33;;;;;;;8.90;3.90;;;;;;;18.89;49.11;101929.80;103390;1265;1003944;-58
2023/10/02 05:03:31;;;;;;;5.00;3.20;;;;;;;18.89;48.49;101942.30;106114;1260;1003010;-57
2023/10/02 05:05:59;;;;;;;15.60;4.70;;;;;;;18.87;48.28;101947.45;107130;1260;22527;-57
2023/10/02 05:08:40;;;;;;;9.50;4.00;;;;;;;18.86;48.36;101946.46;107119;1263;25334;-57
2023/10/02 05:11:14;;;;;;;9.80;3.90;;;;;;;18.84;48.60;101950.21;107083;1261;25483;-58
2023/10/02 05:19:09;;;;;;;8.90;4.20;;;;;;;18.90;47.88;101951.58;107136;1265;25337;-57
2023/10/02 05:21:39;;;;;;;7.40;3.50;;;;;;;18.91;47.42;101952.05;107087;1263;25398;-57
2023/10/02 05:24:11;;;;;;;7.90;3.80;;;;;;;18.93;47.67;101949.86;107043;1257;25340;-57
2023/10/02 05:26:44;;;;;;;;;;;;;;;18.94;47.57;101948.44;107177;1263;22517;-58
2023/10/02 05:29:17;;;;;;;8.70;4.30;;;;;;;18.94;47.69;101948.27;107077;1257;25321;-57
2023/10/02 05:31:45;;;;;;;7.20;3.60;;;;;;;18.93;47.88;101947.07;106851;1269;25331;-58
2023/10/02 05:34:16;;;;;;;10.40;4.10;;;;;;;18.94;47.88;101952.80;107123;1264;22551;-57
2023/10/02 05:37:31;;;;;;;8.40;3.80;;;;;;;18.95;47.67;101958.77;107153;1260;22530;-57
2023/10/02 05:39:39;;;;;;;8.70;4.00;;;;;;;18.94;48.04;101960.02;107090;1270;25331;-57
2023/10/02 05:42:14;;;;;;;7.90;4.20;;;;;;;18.92;48.57;101960.98;107159;1255;25325;-56
2023/10/02 05:44:43;;;;;;;8.70;3.60;;;;;;;18.94;48.90;101963.36;106883;1260;24263;-57
2023/10/02 05:47:15;;;;;;;8.90;3.70;;;;;;;19.05;48.51;101966.67;106817;1259;25316;-57
2023/10/02 05:49:48;;;;;;;8.50;3.80;;;;;;;19.01;48.94;101971.01;107131;1255;22521;-57
2023/10/02 05:52:18;;;;;;;9.40;3.70;;;;;;;19.00;48.87;101972.65;107108;1260;22532;-58
2023/10/02 05:54:55;;;;;;;7.10;4.20;;;;;;;19.01;49.05;101974.90;106370;1256;1003394;-57
2023/10/02 05:57:22;;;;;;;7.30;4.10;;;;;;;19.02;49.21;101975.19;107090;1259;25344;-57
2023/10/02 05:59:54;;;;;;;8.20;4.10;;;;;;;19.04;49.13;101971.28;106863;1267;25344;-57
2023/10/02 06:02:22;;;;;;;9.10;3.90;;;;;;;19.04;49.00;101973.39;107091;1259;25346;-56
2023/10/02 06:04:52;;;;;;;7.40;3.70;;;;;;;19.04;49.05;101970.56;107180;1263;24257;-57
2023/10/02 06:10:18;;;;;;;7.60;3.50;;;;;;;19.09;48.85;101981.25;107241;1263;24202;-57
2023/10/02 06:12:47;;;;;;;11.20;4.00;;;;;;;19.12;48.87;101977.10;107082;1267;25318;-57
2023/10/02 06:18:01;;;;;;;7.50;3.60;;;;;;;19.18;48.88;101974.59;107142;1257;25475;-57
2023/10/02 06:20:29;;;;;;;9.10;4.20;;;;;;;19.19;48.74;101971.39;107140;1264;25392;-57
2023/10/02 06:23:05;;;;;;;6.80;3.80;;;;;;;19.20;48.84;101973.80;107087;1271;25350;-57
2023/10/02 06:25:33;;;;;;;11.40;4.80;;;;;;;19.26;48.90;101973.08;106993;1260;22503;-57
2023/10/02 06:28:19;;;;;;;6.50;3.40;;;;;;;19.30;48.85;101976.42;106787;1273;25328;-58
2023/10/02 06:30:49;;;;;;;10.10;4.30;;;;;;;19.34;48.65;101980.14;107106;1253;25312;-58
2023/10/02 06:33:17;;;;;;;6.90;3.20;;;;;;;19.39;48.61;101977.84;107204;1263;25383;-57
2023/10/02 06:35:45;;;;;;;9.30;4.00;;;;;;;19.43;48.53;101980.14;107104;1257;24357;-58
2023/10/02 06:38:20;;;;;;;8.20;3.50;;;;;;;19.48;48.48;101986.63;106751;1273;25392;-57
2023/10/02 06:40:56;;;;;;;10.80;3.80;;;;;;;19.54;48.55;101980.79;106836;1260;25328;-57
2023/10/02 06:43:30;;;;;;;7.70;3.70;;;;;;;19.62;48.42;101989.81;107126;1265;25319;-57
2023/10/02 06:46:15;;;;;;;7.60;3.60;;;;;;;19.69;48.37;101989.86;107127;1263;25362;-57
2023/10/02 06:48:46;;;;;;;11.40;4.10;;;;;;;19.78;48.34;101989.16;107210;1256;22524;-57
2023/10/02 06:51:14;;;;;;;8.60;3.70;;;;;;;19.84;47.85;101988.73;107130;1260;25356;-57
2023/10/02 06:53:42;;;;;;;7.20;3.40;;;;;;;19.88;47.57;101988.21;106858;1271;25479;-57
2023/10/02 06:56:12;;;;;;;8.40;3.80;;;;;;;19.93;47.30;101988.00;107181;1263;22547;-57
2023/10/02 06:58:49;;;;;;;13.30;5.00;;;;;;;19.97;47.34;101987.13;107076;1263;25401;-57
2023/10/02 07:01:19;;;;;;;9.70;3.80;;;;;;;20.03;47.42;101987.77;107100;1270;22745;-57
2023/10/02 07:03:56;;;;;;;9.20;4.20;;;;;;;20.07;47.39;101992.52;104849;1266;1003749;-58
2023/10/02 07:06:24;;;;;;;6.80;3.80;;;;;;;20.10;47.62;101993.63;107181;1267;25421;-57
2023/10/02 07:09:10;;;;;;;9.10;4.10;;;;;;;20.13;47.45;101997.18;107055;1264;25341;-57
2023/10/02 07:11:39;;;;;;;13.00;4.60;;;;;;;20.14;47.30;102002.42;107075;1258;25381;-58
2023/10/02 07:14:06;;;;;;;8.20;4.00;;;;;;;20.15;47.14;102006.98;107154;1263;25396;-57
2023/10/02 07:16:33;;;;;;;9.10;4.90;;;;;;;20.18;47.46;102009.86;107094;1265;25513;-58
2023/10/02 07:19:01;;;;;;;20.20;6.10;;;;;;;20.19;47.47;102014.39;107061;1257;25331;-58
2023/10/02 07:21:30;;;;;;;8.50;4.20;;;;;;;20.23;47.22;102015.31;107066;1263;25408;-58
2023/10/02 07:23:58;;;;;;;13.50;4.60;;;;;;;20.23;47.12;102014.95;107127;1254;25414;-57
2023/10/02 07:29:11;;;;;;;8.50;4.30;;;;;;;20.28;46.82;102017.58;107158;1266;24021;-57
2023/10/02 07:31:44;;;;;;;8.20;3.80;;;;;;;20.34;46.75;102018.36;107152;1266;25341;-58
2023/10/02 07:34:12;;;;;;;7.70;4.10;;;;;;;20.47;46.32;102018.17;106964;1254;25277;-58
2023/10/02 07:36:45;;;;;;;8.40;3.70;;;;;;;20.54;46.26;102019.41;106902;1267;25322;-58
2023/10/02 07:39:58;;;;;;;11.00;4.10;;;;;;;20.44;46.92;102020.25;106913;1267;22732;-58
2023/10/02 07:42:00;;;;;;;6.30;3.80;;;;;;;20.50;46.94;102020.84;106970;1264;25411;-57
2023/10/02 07:44:36;;;;;;;9.20;4.60;;;;;;;20.55;46.94;102027.15;107037;1254;25356;-59
2023/10/02 07:47:10;;;;;;;7.80;4.40;;;;;;;20.71;46.30;102031.56;107099;1272;25404;-59
2023/10/02 07:49:38;;;;;;;9.80;4.70;;;;;;;20.71;46.04;102029.98;106689;1264;25353;-58
2023/10/02 07:52:08;;;;;;;6.80;3.80;;;;;;;20.83;45.65;102033.34;107105;1269;25362;-58
2023/10/02 07:54:44;;;;;;;13.60;4.70;;;;;;;20.89;45.32;102037.09;107156;1255;25347;-57
2023/10/02 07:57:13;;;;;;;10.50;4.40;;;;;;;20.89;45.11;102034.47;107151;1264;25320;-58
2023/10/02 07:59:43;;;;;;;12.70;4.70;;;;;;;20.89;45.37;102040.66;106903;1255;24033;-59
2023/10/02 08:02:23;;;;;;;8.60;4.20;;;;;;;20.89;45.38;102042.40;106807;1266;22621;-58
2023/10/02 08:04:51;;;;;;;8.60;3.70;;;;;;;20.91;45.39;102037.53;105663;1259;1003395;-57
2023/10/02 08:07:19;;;;;;;10.40;3.90;;;;;;;20.95;45.34;102038.95;107134;1257;25318;-58
2023/10/02 08:09:55;;;;;;;8.40;4.20;;;;;;;21.00;45.17;102040.84;107085;1251;25603;-57
2023/10/02 08:12:29;;;;;;;6.60;4.10;;;;;;;21.01;45.08;102040.13;107071;1257;25362;-58
2023/10/02 08:14:59;;;;;;;8.10;4.00;;;;;;;21.03;44.96;102046.02;107161;1254;25447;-58
2023/10/02 08:18:00;;;;;;;12.80;4.30;;;;;;;20.90;45.63;102045.00;106833;1257;22524;-57
2023/10/02 08:20:16;;;;;;;9.30;4.90;;;;;;;20.93;46.08;102047.69;107144;1261;25398;-57
2023/10/02 08:22:47;;;;;;;10.80;4.50;;;;;;;21.02;45.64;102047.80;107119;1263;25312;-57
2023/10/02 08:25:14;;;;;;;8.10;4.10;;;;;;;21.16;45.42;102045.10;107064;1254;25407;-57
2023/10/02 08:27:55;;;;;;;9.70;3.90;;;;;;;21.22;45.33;102044.48;107091;1264;25419;-58
2023/10/02 08:30:29;;;;;;;7.20;3.80;;;;;;;21.25;45.23;102045.23;107134;1267;25366;-57
2023/10/02 08:33:08;;;;;;;9.00;4.10;;;;;;;21.33;45.30;102043.62;106886;1273;25401;-58
2023/10/02 08:35:52;;;;;;;9.20;3.40;;;;;;;21.43;45.11;102043.17;107085;1261;22532;-58
2023/10/02 08:38:22;;;;;;;7.80;3.80;;;;;;;21.66;44.88;102044.86;107172;1267;25356;-58
2023/10/02 08:40:59;;;;;;;9.30;3.90;;;;;;;21.88;44.40;102041.16;106857;1271;25344;-57
2023/10/02 08:43:27;;;;;;;7.40;3.20;;;;;;;21.98;44.15;102038.23;107156;1257;25325;-58
2023/10/02 08:45:55;;;;;;;9.20;3.50;;;;;;;21.99;44.10;102037.45;107174;1261;25402;-57
2023/10/02 08:48:25;;;;;;;5.30;3.10;;;;;;;22.08;44.29;102034.20;107172;1255;25382;-59
2023/10/02 08:50:57;;;;;;;7.30;3.50;;;;;;;22.20;43.96;102028.66;107043;1269;25325;-58
2023/10/02 08:53:26;;;;;;;8.50;3.50;;;;;;;22.27;43.66;102025.98;107144;1255;22638;-57
2023/10/02 08:56:04;;;;;;;6.50;3.40;;;;;;;22.33;44.23;102023.89;107082;1255;25392;-58
2023/10/02 08:58:31;;;;;;;6.60;3.20;;;;;;;22.43;44.64;102029.24;107053;1256;25493;-58
2023/10/02 09:03:42;;;;;;;7.90;4.20;;;;;;;22.59;44.97;102029.84;107077;1257;25331;-58
2023/10/02 09:06:27;;;;;;;12.20;6.70;;;;;;;22.68;43.05;102022.49;107115;1251;25343;-58
2023/10/02 09:09:16;;;;;;;17.10;6.70;;;;;;;22.54;41.58;102025.46;106848;1266;22761;-58
2023/10/02 09:11:44;;;;;;;7.30;3.90;;;;;;;22.68;40.78;102026.89;106981;1266;24238;-59
2023/10/02 09:17:19;;;;;;;6.70;3.50;;;;;;;22.95;39.23;102032.92;106414;1272;25600;-58
2023/10/02 09:19:54;;;;;;;10.70;4.00;;;;;;;23.06;39.07;102028.92;106269;1277;25344;-58
2023/10/02 09:22:23;;;;;;;8.20;3.70;;;;;;;22.96;39.10;102028.96;106513;1261;25477;-58
2023/10/02 09:24:59;;;;;;;6.70;3.00;;;;;;;23.08;39.17;102032.22;106657;1276;22534;-58
2023/10/02 09:27:27;;;;;;;5.20;2.90;;;;;;;23.10;38.92;102027.86;106409;1276;25615;-58
2023/10/02 09:30:15;;;;;;;5.70;3.20;;;;;;;23.07;38.78;102025.53;106230;1264;25415;-59
2023/10/02 09:32:49;;;;;;;4.30;2.70;;;;;;;23.16;38.95;102024.36;106493;1277;22533;-59
2023/10/02 09:35:25;;;;;;;4.90;2.90;;;;;;;23.14;38.75;102027.10;106518;1277;25734;-59
2023/10/02 09:38:13;;;;;;;5.10;3.10;;;;;;;23.17;38.13;102025.84;106282;1279;25422;-59
2023/10/02 09:40:54;;;;;;;5.00;3.10;;;;;;;23.22;37.40;102021.53;106541;1263;25376;-60
2023/10/02 09:43:23;;;;;;;6.70;3.50;;;;;;;23.28;36.95;102025.97;106237;1263;24050;-59
2023/10/02 09:45:53;;;;;;;7.00;3.50;;;;;;;23.33;36.82;102027.48;106201;1263;22534;-58
2023/10/02 09:51:30;;;;;;;8.50;3.90;;;;;;;23.46;37.68;102024.10;106527;1263;25459;-59
2023/10/02 09:54:04;;;;;;;5.10;3.30;;;;;;;23.53;37.42;102022.48;106912;1269;25414;-59
2023/10/02 09:56:51;;;;;;;14.20;4.30;;;;;;;23.56;36.71;102023.21;107089;1267;22542;-58
2023/10/02 09:59:22;;;;;;;10.20;3.80;;;;;;;23.66;36.72;102022.46;107011;1274;25487;-59
2023/10/02 10:10:47;;;;;;;5.90;3.30;;;;;;;24.04;35.59;102016.89;106725;1273;23824;-58
2023/10/02 10:13:46;;;;;;;6.10;3.10;;;;;;;23.95;35.46;102014.05;106713;1273;25396;-59
2023/10/02 10:16:19;;;;;;;6.40;3.10;;;;;;;24.14;36.62;102014.91;106298;1280;25522;-59
2023/10/02 10:21:57;;;;;;;6.30;3.20;;;;;;;24.00;37.95;102007.54;106323;1278;25512;-58
2023/10/02 10:27:39;;;;;;;6.70;3.40;;;;;;;23.77;36.71;102010.83;106393;1280;25484;-58
2023/10/02 10:30:39;;;;;;;4.40;3.00;;;;;;;23.78;36.19;102012.38;106276;1267;25370;-58
2023/10/02 10:35:49;;;;;;;4.40;2.80;;;;;;;23.90;37.32;102008.67;105863;1273;25492;-59
2023/10/02 10:38:26;;;;;;;6.70;3.30;;;;;;;23.99;36.61;102006.34;105919;1275;25362;-59
2023/10/02 10:41:00;;;;;;;6.20;3.00;;;;;;;24.05;36.36;102000.55;105961;1279;24216;-59
2023/10/02 10:46:16;;;;;;;5.10;3.20;;;;;;;24.11;36.53;101996.65;106329;1266;22601;-59
2023/10/02 10:48:48;;;;;;;8.60;3.40;;;;;;;24.13;36.01;101993.11;106258;1271;25609;-58
2023/10/02 10:51:22;;;;;;;4.90;2.90;;;;;;;24.16;35.72;101991.02;106344;1267;25369;-57
2023/10/02 10:53:52;;;;;;;4.90;3.00;;;;;;;24.18;36.08;101989.13;106530;1275;25596;-58
2023/10/02 10:56:22;;;;;;;7.50;3.50;;;;;;;24.20;36.78;101992.39;106707;1260;25353;-59
2023/10/02 10:58:53;;;;;;;9.20;3.50;;;;;;;24.23;36.59;101989.00;106682;1258;22526;-59
2023/10/02 11:01:21;;;;;;;6.30;3.50;;;;;;;24.27;36.50;101989.84;106723;1257;24384;-58
2023/10/02 11:03:59;;;;;;;8.60;3.80;;;;;;;24.31;36.28;101985.34;106727;1266;25345;-58
2023/10/02 11:06:26;;;;;;;5.50;3.50;;;;;;;24.33;35.94;101981.67;106693;1257;25348;-59
2023/10/02 11:09:11;;;;;;;5.00;3.40;;;;;;;24.34;35.73;101983.77;106766;1272;25349;-58
2023/10/02 11:11:52;;;;;;;8.50;3.60;;;;;;;24.35;36.05;101984.44;107102;1266;25353;-58
2023/10/02 11:14:34;;;;;;;6.30;3.50;;;;;;;24.34;36.47;101982.52;107199;1251;25483;-58
2023/10/02 11:17:04;;;;;;;7.90;3.70;;;;;;;24.36;36.85;101986.52;107177;1268;25468;-58
2023/10/02 11:22:24;;;;;;;6.00;3.40;;;;;;;24.35;36.51;101986.02;107105;1264;25347;-59
2023/10/02 11:24:52;;;;;;;8.20;3.80;;;;;;;24.36;37.18;101987.52;107076;1255;24317;-58
2023/10/02 11:27:20;;;;;;;6.00;3.60;;;;;;;24.37;36.21;101986.39;107099;1255;25484;-59
2023/10/02 11:30:01;;;;;;;8.30;3.50;;;;;;;24.40;35.17;101984.48;107124;1250;25522;-58
2023/10/02 11:35:29;;;;;;;6.90;3.80;;;;;;;24.41;35.59;101985.98;107158;1264;25347;-58
2023/10/02 11:37:58;;;;;;;7.60;3.80;;;;;;;24.41;36.03;101988.83;106953;1254;356803;-58
2023/10/02 11:40:28;;;;;;;5.50;3.50;;;;;;;24.42;36.52;101975.67;107161;1266;25484;-58
2023/10/02 11:42:59;;;;;;;4.90;3.10;;;;;;;24.45;36.66;101975.98;107130;1263;25511;-59
2023/10/02 11:45:28;;;;;;;7.00;3.20;;;;;;;24.47;36.76;101971.59;107201;1260;25510;-58
2023/10/02 11:47:55;;;;;;;4.60;3.10;;;;;;;24.47;36.59;101968.23;107081;1256;22526;-59
2023/10/02 11:50:23;;;;;;;7.00;3.80;;;;;;;24.46;36.73;101968.48;106851;1267;25347;-58
2023/10/02 11:52:51;;;;;;;7.40;3.30;;;;;;;24.44;35.45;101969.70;106909;1270;22524;-58
2023/10/02 11:55:19;;;;;;;5.20;3.30;;;;;;;24.42;34.77;101970.89;107077;1254;25356;-59
2023/10/02 11:58:05;;;;;;;7.40;3.80;;;;;;;24.42;35.47;101968.40;106755;1270;22527;-58
2023/10/02 12:00:33;;;;;;;6.00;3.20;;;;;;;24.44;35.32;101967.55;106766;1260;23165;-59
2023/10/02 12:03:00;;;;;;;10.90;3.80;;;;;;;24.47;34.89;101970.89;106575;1273;25411;-58
2023/10/02 12:05:30;;;;;;;6.40;2.90;;;;;;;24.51;35.18;101971.39;106816;1270;25550;-57
2023/10/02 12:07:59;;;;;;;7.60;3.60;;;;;;;24.53;35.05;101969.45;106808;1256;25514;-58
2023/10/02 12:10:27;;;;;;;5.20;3.30;;;;;;;24.56;34.93;101967.36;106764;1260;25418;-58
2023/10/02 12:12:55;;;;;;;6.20;3.10;;;;;;;24.59;35.50;101963.25;106824;1266;25401;-58
2023/10/02 12:15:22;;;;;;;5.90;3.30;;;;;;;24.61;35.59;101963.30;106112;1256;1003241;-58
2023/10/02 12:17:49;;;;;;;4.20;2.60;;;;;;;24.64;35.68;101962.24;106867;1267;25484;-58
2023/10/02 12:20:22;;;;;;;6.60;3.60;;;;;;;24.65;35.68;101959.88;107132;1254;25366;-58
2023/10/02 12:22:49;;;;;;;4.30;2.90;;;;;;;24.66;35.21;101963.50;107123;1254;25335;-58
2023/10/02 12:25:17;;;;;;;5.60;3.20;;;;;;;24.66;34.88;101964.39;107160;1254;25343;-58
2023/10/02 12:27:44;;;;;;;6.60;3.60;;;;;;;24.66;35.49;101962.43;106995;1257;25481;-58
2023/10/02 12:30:11;;;;;;;5.80;3.10;;;;;;;24.67;35.75;101964.71;106973;1267;25519;-58
2023/10/02 12:32:40;;;;;;;7.90;3.30;;;;;;;24.66;35.60;101965.63;107063;1251;22994;-58
2023/10/02 12:35:08;;;;;;;7.00;3.70;;;;;;;24.65;34.95;101966.08;107063;1253;25405;-59
2023/10/02 12:37:35;;;;;;;7.60;3.90;;;;;;;24.60;35.22;101966.72;107002;1270;22608;-58
2023/10/02 12:40:09;;;;;;;6.60;3.10;;;;;;;24.56;35.43;101963.60;107113;1251;25404;-58
2023/10/02 12:42:37;;;;;;;5.40;3.00;;;;;;;24.56;34.76;101969.44;106853;1267;25415;-58
2023/10/02 12:45:06;;;;;;;4.80;3.20;;;;;;;24.57;35.07;101970.45;107134;1268;25386;-58
2023/10/02 12:47:36;;;;;;;6.30;3.40;;;;;;;24.56;34.54;101971.04;106924;1254;25290;-58
2023/10/02 12:50:10;;;;;;;4.80;3.50;;;;;;;24.55;35.04;101969.34;106880;1260;25391;-57
2023/10/02 12:52:37;;;;;;;8.10;3.40;;;;;;;24.53;34.48;101972.13;107124;1255;22579;-58
2023/10/02 12:55:05;;;;;;;9.10;4.40;;;;;;;24.51;34.93;101970.46;107133;1261;25365;-58
2023/10/02 12:57:33;;;;;;;5.10;3.40;;;;;;;24.52;35.25;101969.52;107116;1250;25281;-58
2023/10/02 13:00:00;;;;;;;4.60;3.00;;;;;;;24.54;35.63;101968.71;106851;1257;22537;-58